SAS4414 ENTC-ENSB
Flight info
| Callsign | SAS4414 |
|---|---|
| Flight time | N/A |
| Altitude | 39000 |
| Route | LOMVI P600 INPAR |
| Aircraft | B738/M-SDE2E3FGHIRWXY/LB1 |
Departure
| Time | N/A |
|---|---|
| Airport | Tromsø Airport (ENTC) |
Arrival
| Time | 2026-05-05 12:09 |
|---|---|
| Airport | Svalbard Airport, Longyear (ENSB) |
| Time | Latitude | Longitude | Altitude | Speed | Heading |
|---|---|---|---|---|---|
| 2026-05-05 11:55 | 75.63618 | 15.30910 | 39013 ft | 453 kts | 354° |
| 2026-05-05 11:55 | 75.69818 | 15.27312 | 39014 ft | 453 kts | 353° |
| 2026-05-05 11:56 | 75.92885 | 15.13540 | 39034 ft | 454 kts | 353° |
| 2026-05-05 11:56 | 76.17928 | 14.98155 | 39043 ft | 455 kts | 353° |
| 2026-05-05 11:57 | 76.43035 | 14.82126 | 36154 ft | 459 kts | 352° |
| 2026-05-05 11:57 | 76.55313 | 14.73829 | 34481 ft | 436 kts | 353° |
| 2026-05-05 11:57 | 76.67020 | 14.65943 | 32456 ft | 421 kts | 353° |
| 2026-05-05 11:58 | 76.78334 | 14.58185 | 30775 ft | 401 kts | 354° |
| 2026-05-05 11:58 | 76.88970 | 14.50688 | 28990 ft | 383 kts | 353° |
| 2026-05-05 11:58 | 76.99246 | 14.43378 | 27235 ft | 363 kts | 354° |
| 2026-05-05 11:58 | 77.08946 | 14.36371 | 25712 ft | 344 kts | 353° |
| 2026-05-05 11:59 | 77.18244 | 14.29565 | 24203 ft | 332 kts | 354° |
| 2026-05-05 11:59 | 77.27107 | 14.22948 | 23059 ft | 314 kts | 354° |
| 2026-05-05 11:59 | 77.35673 | 14.16523 | 21449 ft | 313 kts | 354° |
| 2026-05-05 11:59 | 77.44260 | 14.09978 | 20052 ft | 311 kts | 354° |
| 2026-05-05 12:00 | 77.52732 | 14.03417 | 18525 ft | 305 kts | 354° |
| 2026-05-05 12:00 | 77.60954 | 13.96960 | 16863 ft | 293 kts | 354° |
| 2026-05-05 12:00 | 77.68755 | 13.90756 | 15506 ft | 276 kts | 354° |
| 2026-05-05 12:00 | 77.76086 | 13.84869 | 14177 ft | 266 kts | 354° |
| 2026-05-05 12:01 | 77.83424 | 13.78919 | 12785 ft | 271 kts | 354° |
| 2026-05-05 12:01 | 77.90928 | 13.72739 | 11332 ft | 272 kts | 354° |
| 2026-05-05 12:01 | 77.93472 | 13.70620 | 10921 ft | 265 kts | 354° |
| 2026-05-05 12:01 | 77.95273 | 13.69113 | 10572 ft | 263 kts | 354° |
| 2026-05-05 12:02 | 77.97067 | 13.67615 | 10325 ft | 257 kts | 354° |
| 2026-05-05 12:02 | 77.99036 | 13.65960 | 10157 ft | 247 kts | 354° |
| 2026-05-05 12:02 | 78.05796 | 13.60507 | 8866 ft | 246 kts | 2° |
| 2026-05-05 12:02 | 78.11874 | 13.75075 | 7879 ft | 208 kts | 33° |
| 2026-05-05 12:03 | 78.13161 | 13.78702 | 7408 ft | 221 kts | 32° |
| 2026-05-05 12:03 | 78.14465 | 13.82323 | 7215 ft | 212 kts | 32° |
| 2026-05-05 12:03 | 78.16196 | 13.87092 | 6820 ft | 202 kts | 32° |
| 2026-05-05 12:03 | 78.20984 | 14.00218 | 5736 ft | 194 kts | 32° |
| 2026-05-05 12:04 | 78.25317 | 14.12682 | 5183 ft | 178 kts | 37° |
| 2026-05-05 12:04 | 78.27668 | 14.20636 | 4891 ft | 182 kts | 37° |
| 2026-05-05 12:04 | 78.28744 | 14.24268 | 4780 ft | 191 kts | 37° |
| 2026-05-05 12:04 | 78.30613 | 14.36405 | 3727 ft | 222 kts | 88° |
| 2026-05-05 12:05 | 78.30469 | 14.43623 | 3770 ft | 203 kts | 94° |
| 2026-05-05 12:05 | 78.30164 | 14.50194 | 3866 ft | 195 kts | 99° |
| 2026-05-05 12:05 | 78.29812 | 14.56549 | 3847 ft | 190 kts | 100° |
| 2026-05-05 12:05 | 78.29453 | 14.62647 | 3608 ft | 180 kts | 100° |
| 2026-05-05 12:06 | 78.29112 | 14.68380 | 3364 ft | 169 kts | 100° |
| 2026-05-05 12:06 | 78.28793 | 14.73787 | 3123 ft | 160 kts | 100° |
| 2026-05-05 12:06 | 78.28490 | 14.78931 | 2893 ft | 152 kts | 99° |
| 2026-05-05 12:06 | 78.28199 | 14.83921 | 2694 ft | 152 kts | 99° |
| 2026-05-05 12:07 | 78.27908 | 14.88919 | 2458 ft | 152 kts | 99° |
| 2026-05-05 12:07 | 78.27451 | 14.96825 | 2074 ft | 142 kts | 99° |
| 2026-05-05 12:07 | 78.26431 | 15.14832 | 1222 ft | 137 kts | 99° |
| 2026-05-05 12:07 | 78.25844 | 15.24969 | 840 ft | 157 kts | 105° |
| 2026-05-05 12:08 | 78.25537 | 15.30127 | 651 ft | 148 kts | 102° |
| 2026-05-05 12:08 | 78.25271 | 15.34755 | 477 ft | 132 kts | 102° |
| 2026-05-05 12:08 | 78.25028 | 15.38985 | 273 ft | 127 kts | 102° |
| 2026-05-05 12:08 | 78.24814 | 15.42990 | 95 ft | 120 kts | 105° |
| 2026-05-05 12:09 | 78.24640 | 15.46045 | 94 ft | 91 kts | 105° |
| 2026-05-05 12:09 | 78.24515 | 15.48300 | 90 ft | 45 kts | 105° |
| 2026-05-05 12:09 | 78.24479 | 15.48944 | 87 ft | 14 kts | 105° |
| 2026-05-05 12:09 | 78.24465 | 15.49280 | 87 ft | 10 kts | 81° |
| 2026-05-05 12:10 | 78.24517 | 15.49457 | 87 ft | 10 kts | 11° |
| 2026-05-05 12:10 | 78.24568 | 15.49316 | 89 ft | 9 kts | 318° |
| 2026-05-05 12:10 | 78.24617 | 15.49154 | 88 ft | 7 kts | 359° |
| 2026-05-05 12:10 | 78.24627 | 15.49295 | 88 ft | 5 kts | 97° |
| 2026-05-05 12:11 | 78.24621 | 15.49412 | 89 ft | 0 kts | 105° |